createdAt,value
2019-04-22T00:02:35.253Z,56.8
2019-04-22T00:12:59.637Z,56.7
2019-04-22T00:18:42.513Z,56.6
2019-04-22T00:23:11.222Z,56.7
2019-04-22T00:28:30.146Z,56.6
2019-04-22T00:33:12.857Z,56.5
2019-04-22T00:38:23.265Z,56.5
2019-04-22T00:43:19.067Z,56.5
2019-04-22T00:52:54.478Z,56.4
2019-04-22T00:58:23.883Z,56.5
2019-04-22T01:03:33.981Z,56.4
2019-04-22T01:18:09.147Z,56.2
2019-04-22T01:23:17.802Z,56.3
2019-04-22T01:28:00.751Z,56.2
2019-04-22T01:32:41.602Z,56.0
2019-04-22T01:38:03.799Z,56.1
2019-04-22T01:43:24.408Z,56.1
2019-04-22T01:48:02.153Z,56.0
2019-04-22T01:53:04.643Z,56.0
2019-04-22T01:58:16.768Z,55.9
2019-04-22T02:03:10.121Z,56.0
2019-04-22T02:08:30.756Z,55.9
2019-04-22T02:13:21.180Z,55.8
2019-04-22T02:18:22.774Z,55.6
2019-04-22T02:28:36.306Z,55.6
2019-04-22T02:34:08.588Z,55.5
2019-04-22T02:38:18.753Z,55.5
2019-04-22T02:43:51.184Z,55.5
2019-04-22T02:49:10.705Z,55.4
2019-04-22T02:58:12.288Z,55.4
2019-04-22T03:04:04.240Z,55.4
2019-04-22T03:23:15.834Z,55.1
2019-04-22T03:27:58.078Z,55.1
2019-04-22T03:33:23.084Z,55.1
2019-04-22T03:38:53.645Z,55.0
2019-04-22T03:43:13.060Z,54.9
2019-04-22T03:48:15.190Z,54.9
2019-04-22T03:53:38.059Z,54.9
2019-04-22T03:58:20.676Z,54.8
2019-04-22T04:04:00.117Z,54.8
2019-04-22T04:08:26.190Z,54.9
2019-04-22T04:18:46.365Z,54.6
2019-04-22T04:23:45.666Z,54.4
2019-04-22T04:33:37.825Z,54.3
2019-04-22T04:37:58.422Z,54.3
2019-04-22T04:48:41.762Z,54.3
2019-04-22T04:53:12.289Z,54.3
2019-04-22T04:58:24.701Z,54.0
2019-04-22T05:03:56.540Z,53.8
2019-04-22T05:08:37.645Z,53.5
2019-04-22T05:13:22.663Z,53.5
2019-04-22T05:18:05.593Z,53.5
2019-04-22T05:23:29.834Z,53.6
2019-04-22T05:38:32.881Z,53.4
2019-04-22T05:42:59.965Z,53.3
2019-04-22T05:48:00.760Z,53.5
2019-04-22T05:53:13.035Z,53.5
2019-04-22T05:58:08.139Z,53.4
2019-04-22T06:03:01.395Z,53.4
2019-04-22T06:08:23.105Z,53.4
2019-04-22T06:13:17.519Z,53.4
2019-04-22T06:18:37.994Z,53.4
2019-04-22T06:23:34.211Z,53.6
2019-04-22T06:28:34.646Z,53.7
2019-04-22T06:33:25.897Z,53.8
2019-04-22T06:38:24.195Z,53.9
2019-04-22T06:43:21.563Z,53.9
2019-04-22T06:48:34.106Z,54.0
2019-04-22T06:53:29.538Z,54.3
2019-04-22T06:58:19.474Z,54.4
2019-04-22T07:03:52.925Z,54.9
2019-04-22T07:08:59.095Z,54.9
2019-04-22T07:13:00.684Z,55.0
2019-04-22T07:18:29.551Z,55.0
2019-04-22T07:23:20.646Z,55.3
2019-04-22T07:33:51.034Z,55.5
2019-04-22T07:43:19.427Z,56.8
2019-04-22T07:48:32.844Z,56.7
2019-04-22T07:53:09.873Z,56.7
2019-04-22T08:03:06.074Z,56.7
2019-04-22T08:08:28.601Z,56.7
2019-04-22T08:18:17.097Z,57.2
2019-04-22T08:23:15.980Z,57.2
2019-04-22T08:33:21.421Z,57.3
2019-04-22T08:38:06.055Z,57.5
2019-04-22T08:43:03.913Z,57.6
2019-04-22T08:48:14.845Z,57.6
2019-04-22T08:53:31.243Z,57.7
2019-04-22T08:58:39.453Z,57.9
2019-04-22T09:03:15.717Z,57.9
2019-04-22T09:08:18.504Z,58.0
2019-04-22T09:13:05.593Z,57.7
2019-04-22T09:18:34.294Z,58.5
2019-04-22T09:23:29.996Z,58.4
2019-04-22T09:28:00.401Z,58.4
2019-04-22T09:33:26.977Z,58.9
2019-04-22T09:38:30.905Z,58.9
2019-04-22T09:43:02.248Z,59.1
2019-04-22T09:48:16.113Z,58.9
2019-04-22T09:53:28.407Z,59.2
2019-04-22T09:58:15.822Z,59.2
2019-04-22T10:03:36.133Z,59.2
2019-04-22T10:08:23.674Z,59.6
2019-04-22T10:13:18.305Z,59.6
2019-04-22T10:18:08.862Z,59.8
2019-04-22T10:28:32.064Z,60.2
2019-04-22T10:32:57.742Z,60.3
2019-04-22T10:37:30.353Z,60.2
2019-04-22T10:42:31.017Z,60.3
2019-04-22T10:47:29.578Z,60.5
2019-04-22T10:52:30.032Z,60.0
2019-04-22T10:57:30.095Z,59.8
2019-04-22T11:02:29.712Z,60.1
2019-04-22T11:07:42.012Z,59.9
2019-04-22T11:12:36.052Z,59.8
2019-04-22T11:17:29.711Z,59.8
2019-04-22T11:22:36.885Z,59.5
2019-04-22T11:27:29.442Z,59.5
2019-04-22T11:32:30.601Z,59.7
2019-04-22T11:37:30.810Z,60.4
2019-04-22T11:42:30.495Z,60.0
2019-04-22T11:47:30.062Z,61.0
2019-04-22T11:52:29.303Z,61.5
2019-04-22T11:57:30.745Z,61.8
2019-04-22T12:02:31.062Z,61.9
2019-04-22T12:07:34.866Z,61.5
2019-04-22T12:12:31.749Z,61.4
2019-04-22T12:17:29.805Z,61.2
2019-04-22T12:22:31.169Z,60.6
2019-04-22T12:27:30.651Z,60.6
2019-04-22T12:32:31.583Z,61.6
2019-04-22T12:37:45.571Z,61.2
2019-04-22T12:42:31.194Z,61.6
2019-04-22T12:47:30.406Z,62.0
2019-04-22T12:52:47.720Z,61.8
2019-04-22T12:57:30.020Z,61.5
2019-04-22T13:02:30.972Z,61.8
2019-04-22T13:07:31.248Z,61.1
2019-04-22T13:12:30.804Z,61.6
2019-04-22T13:17:31.211Z,62.0
2019-04-22T13:22:30.276Z,62.0
2019-04-22T13:27:30.816Z,62.0
2019-04-22T13:32:29.317Z,62.6
2019-04-22T13:37:30.665Z,62.5
2019-04-22T13:42:31.489Z,62.9
2019-04-22T13:48:01.359Z,62.5
2019-04-22T13:58:02.406Z,62.4
2019-04-22T14:02:30.526Z,62.2
2019-04-22T14:07:30.596Z,62.2
2019-04-22T14:12:29.150Z,61.8
2019-04-22T14:17:31.378Z,62.6
2019-04-22T14:22:28.764Z,62.0
2019-04-22T14:27:48.483Z,61.1
2019-04-22T14:32:33.692Z,59.8
2019-04-22T14:37:30.182Z,59.7
2019-04-22T14:48:26.500Z,60.5
2019-04-22T14:53:13.183Z,60.4
2019-04-22T14:57:31.743Z,61.1
2019-04-22T15:02:30.186Z,61.1
2019-04-22T15:07:30.691Z,60.3
2019-04-22T15:12:43.838Z,58.4
2019-04-22T15:17:30.943Z,57.2
2019-04-22T15:22:28.854Z,50.1
2019-04-22T15:27:31.439Z,50.1
2019-04-22T15:32:31.469Z,50.6
2019-04-22T15:37:28.756Z,51.7
2019-04-22T15:42:37.397Z,54.6
2019-04-22T15:47:30.985Z,56.3
2019-04-22T15:52:40.443Z,57.8
2019-04-22T15:57:30.730Z,58.4
2019-04-22T16:02:31.624Z,58.6
2019-04-22T16:07:31.467Z,57.0
2019-04-22T16:12:44.009Z,55.8
2019-04-22T16:17:30.324Z,55.8
2019-04-22T16:22:32.439Z,53.3
2019-04-22T16:27:30.567Z,49.9
2019-04-22T16:32:31.788Z,49.3
2019-04-22T16:37:28.910Z,48.3
2019-04-22T16:42:47.641Z,50.1
2019-04-22T16:47:29.229Z,50.8
2019-04-22T16:52:28.498Z,50.8
2019-04-22T16:57:30.367Z,49.4
2019-04-22T17:02:31.135Z,49.8
2019-04-22T17:07:30.136Z,51.1
2019-04-22T17:12:50.631Z,53.2
2019-04-22T17:17:30.664Z,55.2
2019-04-22T17:22:31.319Z,54.5
2019-04-22T17:27:34.356Z,55.4
2019-04-22T17:32:29.258Z,56.2
2019-04-22T17:37:35.879Z,54.8
2019-04-22T17:48:09.238Z,54.9
2019-04-22T17:53:25.848Z,56.1
2019-04-22T17:58:20.495Z,57.5
2019-04-22T18:03:00.375Z,57.7
2019-04-22T18:18:22.925Z,58.9
2019-04-22T18:22:54.026Z,59.4
2019-04-22T18:28:23.255Z,59.6
2019-04-22T18:33:02.528Z,59.7
2019-04-22T18:38:27.763Z,60.0
2019-04-22T18:43:16.290Z,60.0
2019-04-22T18:47:52.664Z,60.0
2019-04-22T18:58:02.505Z,59.8
2019-04-22T19:02:37.513Z,59.7
2019-04-22T19:08:12.281Z,59.5
2019-04-22T19:13:55.854Z,59.4
2019-04-22T19:18:23.790Z,59.6
2019-04-22T19:33:10.464Z,59.1
2019-04-22T19:37:53.377Z,59.0
2019-04-22T19:43:02.078Z,59.1
2019-04-22T19:48:21.271Z,58.9
2019-04-22T19:53:03.163Z,59.0
2019-04-22T19:58:14.583Z,58.9
2019-04-22T20:03:20.073Z,58.9
2019-04-22T20:08:05.579Z,58.8
2019-04-22T20:18:46.233Z,58.7
2019-04-22T20:23:01.721Z,58.8
2019-04-22T20:28:00.770Z,58.8
2019-04-22T20:33:08.213Z,58.8
2019-04-22T20:38:02.643Z,58.7
2019-04-22T20:43:14.763Z,58.7
2019-04-22T20:47:50.815Z,58.6
2019-04-22T20:53:23.892Z,58.6
2019-04-22T20:58:04.616Z,58.6
2019-04-22T21:02:53.810Z,58.6
2019-04-22T21:08:11.062Z,58.5
2019-04-22T21:18:05.145Z,58.4
2019-04-22T21:23:16.079Z,58.4
2019-04-22T21:28:21.233Z,58.3
2019-04-22T21:33:06.534Z,58.3
2019-04-22T21:43:18.110Z,58.2
2019-04-22T21:48:03.287Z,58.2
2019-04-22T21:53:06.374Z,58.2
2019-04-22T21:58:17.634Z,58.1
2019-04-22T22:07:33.366Z,58.1
2019-04-22T22:13:10.537Z,58.1
2019-04-22T22:23:21.431Z,57.7
2019-04-22T22:29:49.009Z,58.0
2019-04-22T22:33:28.080Z,58.0
2019-04-22T22:38:22.638Z,58.0
2019-04-22T22:42:51.767Z,57.9
2019-04-22T22:48:39.434Z,57.9
2019-04-22T22:53:38.510Z,57.7
2019-04-22T22:58:33.850Z,57.5
2019-04-22T23:03:39.743Z,57.4
2019-04-22T23:08:30.849Z,57.2
2019-04-22T23:13:12.904Z,57.2
2019-04-22T23:17:34.172Z,57.1
2019-04-22T23:27:45.938Z,57.2
2019-04-22T23:32:43.412Z,57.1
2019-04-22T23:37:49.718Z,57.0
2019-04-22T23:47:46.036Z,57.0
2019-04-22T23:53:08.478Z,57.0
2019-04-22T23:58:16.351Z,56.9
